Time;durP1;ratioP1;P1;durP2;ratioP2;P2;SDS_P1;SDS_P2;PMS_P1;PMS_P2;Temp;Humidity;BMP_temperature;BMP_pressure;BME280_temperature;BME280_humidity;BME280_pressure;Samples;Min_cycle;Max_cycle;Signal;HPM_P1;HPM_P2
2023/04/24 00:01:00;;;;;;;0.00;0.00;;;11.50;90.10;;;;;;4969872;28;20049;-68
2023/04/24 00:03:27;;;;;;;0.00;0.00;;;11.50;90.20;;;;;;4969958;28;20049;-67
2023/04/24 00:05:56;;;;;;;0.00;0.00;;;11.50;90.20;;;;;;4952609;28;20508;-67
2023/04/24 00:08:22;;;;;;;0.00;0.00;;;11.50;90.10;;;;;;4969977;28;20095;-68
2023/04/24 00:10:48;;;;;;;0.00;0.00;;;11.60;90.10;;;;;;4972007;28;20066;-67
2023/04/24 00:13:13;;;;;;;0.00;0.00;;;11.60;90.10;;;;;;4974416;28;20043;-67
2023/04/24 00:15:39;;;;;;;0.00;0.00;;;11.60;90.00;;;;;;4974105;28;20046;-68
2023/04/24 00:18:05;;;;;;;0.00;0.00;;;11.60;89.90;;;;;;4973610;28;20050;-68
2023/04/24 00:20:32;;;;;;;0.00;0.00;;;11.60;89.90;;;;;;4973424;28;20053;-67
2023/04/24 00:22:58;;;;;;;0.00;0.00;;;11.60;89.80;;;;;;4973358;28;20122;-67
2023/04/24 00:25:23;;;;;;;0.00;0.00;;;11.60;90.00;;;;;;4973997;28;20952;-67
2023/04/24 00:27:49;;;;;;;0.00;0.00;;;11.60;89.90;;;;;;4973072;28;20042;-67
2023/04/24 00:30:14;;;;;;;0.00;0.00;;;11.60;90.00;;;;;;4973682;28;20403;-67
2023/04/24 00:32:40;;;;;;;0.00;0.00;;;11.60;90.00;;;;;;4973557;28;20133;-67
2023/04/24 00:35:06;;;;;;;0.00;0.00;;;11.60;90.00;;;;;;4971939;28;20042;-67
2023/04/24 00:37:32;;;;;;;0.00;0.00;;;11.60;90.10;;;;;;4973027;28;20503;-68
2023/04/24 00:39:57;;;;;;;0.00;0.00;;;11.60;90.00;;;;;;4973493;28;20077;-67
2023/04/24 00:42:23;;;;;;;0.00;0.00;;;11.60;90.10;;;;;;4973590;28;20074;-67
2023/04/24 00:44:49;;;;;;;0.00;0.00;;;11.60;90.00;;;;;;4956574;28;20074;-67
2023/04/24 00:47:15;;;;;;;0.00;0.00;;;11.70;90.00;;;;;;4972967;28;20078;-67
2023/04/24 00:49:41;;;;;;;0.00;0.00;;;11.60;90.00;;;;;;4973025;28;20506;-67
2023/04/24 00:52:08;;;;;;;0.00;0.00;;;11.70;90.00;;;;;;4955691;28;20077;-67
2023/04/24 00:54:34;;;;;;;0.00;0.00;;;11.60;90.00;;;;;;4955047;28;20121;-67
2023/04/24 00:57:01;;;;;;;0.00;0.00;;;11.70;90.00;;;;;;4973369;28;20065;-68
2023/04/24 00:59:26;;;;;;;0.00;0.00;;;11.60;89.90;;;;;;4972966;28;20104;-67
2023/04/24 01:01:52;;;;;;;0.00;0.00;;;11.60;89.90;;;;;;4955458;28;20046;-67
2023/04/24 01:04:18;;;;;;;0.00;0.00;;;11.70;89.90;;;;;;4973248;28;20445;-67
2023/04/24 01:06:45;;;;;;;0.00;0.00;;;11.60;89.80;;;;;;4973168;28;20043;-67
2023/04/24 01:09:11;;;;;;;0.00;0.00;;;11.70;89.80;;;;;;4939542;28;20090;-67
2023/04/24 01:11:37;;;;;;;0.00;0.00;;;11.70;89.80;;;;;;4972650;28;20046;-67
2023/04/24 01:14:03;;;;;;;0.00;0.00;;;11.70;89.70;;;;;;4939618;28;20047;-68
2023/04/24 01:16:29;;;;;;;0.00;0.00;;;11.70;89.70;;;;;;4973007;28;20047;-67
2023/04/24 01:18:55;;;;;;;0.00;0.00;;;11.70;89.60;;;;;;4972605;28;20416;-67
2023/04/24 01:21:23;;;;;;;0.00;0.00;;;11.70;89.60;;;;;;4954662;28;20054;-67
2023/04/24 01:23:49;;;;;;;0.00;0.00;;;11.70;89.60;;;;;;4972054;28;20523;-67
2023/04/24 01:26:16;;;;;;;0.00;0.00;;;11.60;89.50;;;;;;4972739;28;20051;-68
2023/04/24 01:28:42;;;;;;;0.00;0.00;;;11.60;89.50;;;;;;4955557;28;20166;-68
2023/04/24 01:31:07;;;;;;;0.00;0.00;;;11.60;89.60;;;;;;4972619;28;20121;-67
2023/04/24 01:33:33;;;;;;;0.03;0.03;;;11.60;89.50;;;;;;4972391;28;20074;-67
2023/04/24 01:35:59;;;;;;;0.00;0.00;;;11.60;89.80;;;;;;4939485;28;20133;-67
2023/04/24 01:38:25;;;;;;;0.00;0.00;;;11.60;89.70;;;;;;4972883;28;20077;-67
2023/04/24 01:40:51;;;;;;;0.00;0.00;;;11.60;89.60;;;;;;4972444;28;20508;-67
2023/04/24 01:43:17;;;;;;;0.00;0.00;;;11.60;89.60;;;;;;4971028;28;20039;-67
2023/04/24 01:45:43;;;;;;;0.00;0.00;;;11.50;89.60;;;;;;4972595;28;20117;-67
2023/04/24 01:48:08;;;;;;;0.00;0.00;;;11.50;89.70;;;;;;4972484;28;20507;-67
2023/04/24 01:50:34;;;;;;;0.00;0.00;;;11.40;89.60;;;;;;4972296;28;20117;-67
2023/04/24 01:53:00;;;;;;;0.00;0.00;;;11.40;89.50;;;;;;4972543;28;20058;-68
2023/04/24 01:55:26;;;;;;;0.05;0.05;;;11.40;89.50;;;;;;4972275;28;20054;-68
2023/04/24 01:57:54;;;;;;;0.10;0.10;;;11.40;89.50;;;;;;4971804;28;20431;-67
2023/04/24 02:00:19;;;;;;;0.00;0.00;;;11.40;89.50;;;;;;4972236;28;20488;-68
2023/04/24 02:02:45;;;;;;;0.00;0.00;;;11.30;89.60;;;;;;4971880;28;20070;-68
2023/04/24 02:05:11;;;;;;;0.00;0.00;;;11.30;89.70;;;;;;4972022;28;20042;-68
2023/04/24 02:07:36;;;;;;;0.00;0.00;;;11.30;89.60;;;;;;4971984;28;20049;-68
2023/04/24 02:10:03;;;;;;;0.10;0.10;;;11.30;89.60;;;;;;4971708;28;20158;-68
2023/04/24 02:12:29;;;;;;;0.00;0.00;;;11.30;89.80;;;;;;4953861;28;20047;-68
2023/04/24 02:14:55;;;;;;;0.00;0.00;;;11.30;89.80;;;;;;4972105;28;20042;-67
2023/04/24 02:17:21;;;;;;;0.00;0.00;;;11.30;89.70;;;;;;4954762;28;20049;-68
2023/04/24 02:19:46;;;;;;;0.00;0.00;;;11.30;89.80;;;;;;4971126;28;20039;-68
2023/04/24 02:22:12;;;;;;;0.00;0.00;;;11.30;90.00;;;;;;4971308;28;20050;-67
2023/04/24 02:24:38;;;;;;;0.00;0.00;;;11.30;89.80;;;;;;4971332;28;20046;-67
2023/04/24 02:27:04;;;;;;;0.00;0.00;;;11.30;89.90;;;;;;4954371;28;20051;-67
2023/04/24 02:29:30;;;;;;;0.00;0.00;;;11.30;89.80;;;;;;4971848;28;20058;-67
2023/04/24 02:31:56;;;;;;;0.00;0.00;;;11.30;90.10;;;;;;4954488;28;20146;-67
2023/04/24 02:34:22;;;;;;;0.00;0.00;;;11.30;90.10;;;;;;4969630;28;20092;-67
2023/04/24 02:36:48;;;;;;;0.00;0.00;;;11.30;90.00;;;;;;4971422;28;20050;-67
2023/04/24 02:39:16;;;;;;;0.00;0.00;;;11.20;90.00;;;;;;4954682;28;20057;-67
2023/04/24 02:41:42;;;;;;;0.10;0.10;;;11.10;90.50;;;;;;4971014;28;20188;-67
2023/04/24 02:44:08;;;;;;;0.00;0.00;;;11.10;90.80;;;;;;4971282;28;20562;-67
2023/04/24 02:46:33;;;;;;;0.10;0.10;;;11.10;90.70;;;;;;4970727;28;20086;-67
2023/04/24 02:48:59;;;;;;;0.00;0.00;;;11.00;90.90;;;;;;4970933;28;20484;-67
2023/04/24 02:51:24;;;;;;;0.00;0.00;;;10.80;91.40;;;;;;4954482;28;20047;-67
2023/04/24 02:53:50;;;;;;;0.03;0.03;;;10.80;91.70;;;;;;4971075;28;20046;-67
2023/04/24 02:56:16;;;;;;;0.00;0.00;;;10.70;91.80;;;;;;4971064;28;20776;-68
2023/04/24 02:58:42;;;;;;;0.03;0.03;;;10.60;91.70;;;;;;4971091;28;20471;-67
2023/04/24 03:01:09;;;;;;;0.00;0.00;;;10.70;91.60;;;;;;4953619;28;20054;-68
2023/04/24 03:03:35;;;;;;;0.00;0.00;;;10.60;91.80;;;;;;4971209;28;20065;-67
2023/04/24 03:06:01;;;;;;;0.00;0.00;;;10.60;91.90;;;;;;4937790;28;20055;-68
2023/04/24 03:08:27;;;;;;;0.00;0.00;;;10.60;92.00;;;;;;4937637;28;20065;-67
2023/04/24 03:10:52;;;;;;;0.00;0.00;;;10.60;92.00;;;;;;4969820;28;20129;-68
2023/04/24 03:13:18;;;;;;;0.00;0.00;;;10.60;91.90;;;;;;4970789;28;20046;-68
2023/04/24 03:15:44;;;;;;;0.00;0.00;;;10.50;91.80;;;;;;4970648;28;20708;-68
2023/04/24 03:18:10;;;;;;;0.00;0.00;;;10.50;92.30;;;;;;4970214;28;20057;-67
2023/04/24 03:20:37;;;;;;;0.00;0.00;;;10.50;92.20;;;;;;4971437;28;20038;-68
2023/04/24 03:23:03;;;;;;;0.00;0.00;;;10.50;92.10;;;;;;4961110;28;20093;-67
2023/04/24 03:25:28;;;;;;;0.00;0.00;;;10.50;92.20;;;;;;4939561;28;20462;-68
2023/04/24 03:27:54;;;;;;;0.00;0.00;;;10.50;92.30;;;;;;4971423;28;20535;-68
2023/04/24 03:30:20;;;;;;;0.00;0.00;;;10.50;92.10;;;;;;4937112;28;20049;-68
2023/04/24 03:32:46;;;;;;;0.00;0.00;;;10.50;92.40;;;;;;4970455;28;20047;-68
2023/04/24 03:35:11;;;;;;;0.00;0.00;;;10.40;92.40;;;;;;4969661;28;20055;-67
2023/04/24 03:37:37;;;;;;;0.00;0.00;;;10.40;92.40;;;;;;4970350;28;20673;-68
2023/04/24 03:40:03;;;;;;;0.80;0.80;;;10.40;92.50;;;;;;4970404;28;20051;-68
2023/04/24 03:42:28;;;;;;;0.70;0.55;;;10.40;92.50;;;;;;4970228;28;20129;-67
2023/04/24 03:44:54;;;;;;;0.00;0.00;;;10.40;92.30;;;;;;4968391;28;20046;-67
2023/04/24 03:47:19;;;;;;;0.00;0.00;;;10.30;92.50;;;;;;4970297;28;20042;-68
2023/04/24 03:49:45;;;;;;;0.05;0.05;;;10.40;92.60;;;;;;4953483;28;20047;-67
2023/04/24 03:52:10;;;;;;;0.00;0.00;;;10.40;92.60;;;;;;4969526;28;20487;-68
2023/04/24 03:54:36;;;;;;;0.00;0.00;;;10.30;92.70;;;;;;4969251;28;20042;-67
2023/04/24 03:57:01;;;;;;;0.15;0.15;;;10.40;92.70;;;;;;4970351;28;20067;-67
2023/04/24 03:59:27;;;;;;;0.00;0.00;;;10.30;92.80;;;;;;4970172;28;20053;-68
2023/04/24 04:01:52;;;;;;;0.00;0.00;;;10.30;92.70;;;;;;4970060;28;20066;-68
2023/04/24 04:04:18;;;;;;;0.00;0.00;;;10.30;92.80;;;;;;4936945;28;20089;-67
2023/04/24 04:06:44;;;;;;;0.00;0.00;;;10.30;92.80;;;;;;4970369;28;20071;-68
2023/04/24 04:09:10;;;;;;;0.00;0.00;;;10.30;92.70;;;;;;4970005;28;20050;-67
2023/04/24 04:11:36;;;;;;;0.00;0.00;;;10.20;92.70;;;;;;4970043;28;20130;-67
2023/04/24 04:14:01;;;;;;;0.00;0.00;;;10.20;92.70;;;;;;4970139;28;20118;-67
2023/04/24 04:16:27;;;;;;;0.00;0.00;;;10.20;92.80;;;;;;4969966;28;20081;-68
2023/04/24 04:18:52;;;;;;;0.10;0.10;;;10.20;92.70;;;;;;4969529;28;20070;-68
2023/04/24 04:21:18;;;;;;;0.00;0.00;;;10.10;92.70;;;;;;4969831;28;20062;-68
2023/04/24 04:23:43;;;;;;;0.00;0.00;;;10.10;92.70;;;;;;4969478;28;20049;-68
2023/04/24 04:26:10;;;;;;;0.00;0.00;;;10.10;92.70;;;;;;4969776;28;20038;-67
2023/04/24 04:28:37;;;;;;;0.00;0.00;;;10.10;92.50;;;;;;4968994;28;20047;-67
2023/04/24 04:31:03;;;;;;;0.00;0.00;;;10.10;92.50;;;;;;4969179;28;20051;-67
2023/04/24 04:33:28;;;;;;;0.00;0.00;;;10.10;92.40;;;;;;4935615;28;20065;-69
2023/04/24 04:35:56;;;;;;;0.00;0.00;;;10.00;92.50;;;;;;4970330;28;20050;-68
2023/04/24 04:38:22;;;;;;;0.00;0.00;;;10.10;92.30;;;;;;4952553;28;20051;-68
2023/04/24 04:40:48;;;;;;;0.00;0.00;;;10.10;92.10;;;;;;4968911;28;20632;-68
2023/04/24 04:43:14;;;;;;;0.00;0.00;;;10.00;92.10;;;;;;4969576;28;20067;-68
2023/04/24 04:45:42;;;;;;;0.00;0.00;;;10.00;91.90;;;;;;4969420;28;20050;-68
2023/04/24 04:48:08;;;;;;;0.00;0.00;;;10.10;91.90;;;;;;4952485;28;20043;-68
2023/04/24 04:50:35;;;;;;;0.00;0.00;;;10.00;91.90;;;;;;4968133;28;20074;-67
2023/04/24 04:53:00;;;;;;;0.60;0.52;;;10.00;91.90;;;;;;4966778;28;20134;-67
2023/04/24 04:55:26;;;;;;;0.00;0.00;;;10.00;92.00;;;;;;4951971;28;20134;-67
2023/04/24 04:57:52;;;;;;;0.00;0.00;;;10.00;91.90;;;;;;4972352;28;20146;-68
2023/04/24 05:00:18;;;;;;;0.00;0.00;;;10.00;92.00;;;;;;4971075;28;20047;-68
2023/04/24 05:02:43;;;;;;;0.00;0.00;;;10.00;91.90;;;;;;4973148;28;20038;-67
2023/04/24 05:05:09;;;;;;;0.00;0.00;;;10.00;92.00;;;;;;4972293;28;20049;-68
2023/04/24 05:07:35;;;;;;;0.00;0.00;;;10.00;91.90;;;;;;4955169;28;20071;-68
2023/04/24 05:10:01;;;;;;;0.00;0.00;;;10.00;91.90;;;;;;4972098;28;20503;-68
2023/04/24 05:12:27;;;;;;;0.00;0.00;;;10.00;91.80;;;;;;4972096;28;20050;-67
2023/04/24 05:14:52;;;;;;;0.00;0.00;;;10.00;91.80;;;;;;4955352;28;20039;-67
2023/04/24 05:17:18;;;;;;;0.43;0.43;;;10.00;91.80;;;;;;4969960;28;20854;-66
2023/04/24 05:19:44;;;;;;;0.00;0.00;;;10.00;91.90;;;;;;4958585;28;20049;-68
2023/04/24 05:22:11;;;;;;;0.10;0.10;;;10.00;91.80;;;;;;4972481;28;20161;-66
2023/04/24 05:24:37;;;;;;;0.08;0.08;;;10.00;91.80;;;;;;4972386;28;20514;-67
2023/04/24 05:27:04;;;;;;;0.00;0.00;;;10.10;92.00;;;;;;4955855;28;20046;-68
2023/04/24 05:29:33;;;;;;;0.00;0.00;;;10.00;92.00;;;;;;4972334;28;20042;-68
2023/04/24 05:32:00;;;;;;;0.00;0.00;;;10.00;92.10;;;;;;4956144;28;20443;-68
2023/04/24 05:34:26;;;;;;;0.00;0.00;;;10.10;91.80;;;;;;4955801;28;20066;-68
2023/04/24 05:36:53;;;;;;;0.00;0.00;;;10.10;91.60;;;;;;4972509;28;20039;-67
2023/04/24 05:39:19;;;;;;;0.10;0.10;;;10.00;91.40;;;;;;4972260;28;20109;-67
2023/04/24 05:41:45;;;;;;;0.00;0.00;;;10.00;91.50;;;;;;4972695;28;20106;-67
2023/04/24 05:44:10;;;;;;;0.00;0.00;;;10.00;91.40;;;;;;4955582;28;20051;-67
2023/04/24 05:46:36;;;;;;;0.00;0.00;;;9.90;91.10;;;;;;4971345;28;20051;-67
2023/04/24 05:49:02;;;;;;;0.00;0.00;;;10.00;91.00;;;;;;4972166;28;20085;-67
2023/04/24 05:51:28;;;;;;;0.03;0.03;;;9.90;91.00;;;;;;4952331;28;20034;-66
2023/04/24 05:53:53;;;;;;;0.00;0.00;;;9.90;90.80;;;;;;4972074;28;20070;-65
2023/04/24 05:56:20;;;;;;;0.00;0.00;;;10.00;91.10;;;;;;4955908;28;20090;-65
2023/04/24 05:58:46;;;;;;;0.00;0.00;;;10.00;90.70;;;;;;4965823;28;20043;-65
2023/04/24 06:01:12;;;;;;;0.00;0.00;;;10.10;90.60;;;;;;4971073;28;20105;-65
2023/04/24 06:03:39;;;;;;;0.47;0.15;;;10.00;90.50;;;;;;4972242;28;20047;-65
2023/04/24 06:06:06;;;;;;;0.03;0.03;;;10.00;90.60;;;;;;4973279;28;20074;-65
2023/04/24 06:08:32;;;;;;;0.00;0.00;;;9.90;90.60;;;;;;4954004;28;20058;-65
2023/04/24 06:10:58;;;;;;;0.00;0.00;;;9.90;90.80;;;;;;4935870;29;20086;-65
2023/04/24 06:13:23;;;;;;;0.00;0.00;;;9.90;90.80;;;;;;4952985;29;20126;-65
2023/04/24 06:15:49;;;;;;;0.00;0.00;;;10.00;90.80;;;;;;4951554;29;20043;-65
2023/04/24 06:18:15;;;;;;;0.00;0.00;;;9.90;90.80;;;;;;4953978;28;20860;-65
2023/04/24 06:20:40;;;;;;;1.10;0.55;;;10.00;90.60;;;;;;4972123;28;20654;-65
2023/04/24 06:23:06;;;;;;;0.00;0.00;;;9.90;90.50;;;;;;4959762;28;20731;-66
2023/04/24 06:25:31;;;;;;;0.65;0.60;;;9.90;90.60;;;;;;4958022;28;20066;-65
2023/04/24 06:27:57;;;;;;;0.00;0.00;;;9.90;90.50;;;;;;4961591;28;20905;-66
2023/04/24 06:30:23;;;;;;;0.00;0.00;;;9.90;90.50;;;;;;4958960;28;20045;-65
2023/04/24 06:32:48;;;;;;;0.05;0.05;;;9.80;90.60;;;;;;4960860;28;20435;-65
2023/04/24 06:35:14;;;;;;;0.00;0.00;;;9.80;90.80;;;;;;4957709;28;20066;-66
2023/04/24 06:37:41;;;;;;;1.75;0.88;;;9.80;90.50;;;;;;4960459;28;20045;-66
2023/04/24 06:40:07;;;;;;;0.25;0.25;;;9.70;90.70;;;;;;4958486;28;20039;-65
2023/04/24 06:42:32;;;;;;;0.03;0.03;;;9.70;90.60;;;;;;4960932;28;20047;-65
2023/04/24 06:44:58;;;;;;;0.10;0.10;;;9.60;90.60;;;;;;4960906;28;20093;-65
2023/04/24 06:47:24;;;;;;;0.10;0.10;;;9.60;90.70;;;;;;4960644;28;20053;-67
2023/04/24 06:49:50;;;;;;;0.00;0.00;;;9.60;90.70;;;;;;4960510;28;20103;-66
2023/04/24 06:52:16;;;;;;;0.05;0.05;;;9.60;90.70;;;;;;4960893;28;20130;-67
2023/04/24 06:54:42;;;;;;;0.10;0.10;;;9.60;90.50;;;;;;4961133;28;20133;-66
2023/04/24 06:57:10;;;;;;;0.10;0.10;;;9.60;90.40;;;;;;4959993;28;20055;-66
2023/04/24 06:59:37;;;;;;;0.00;0.00;;;9.50;90.10;;;;;;4960735;28;20405;-65
2023/04/24 07:02:02;;;;;;;0.00;0.00;;;9.40;90.40;;;;;;4961135;28;20050;-66
2023/04/24 07:04:29;;;;;;;0.00;0.00;;;9.40;90.20;;;;;;4946429;28;20035;-66
2023/04/24 07:06:55;;;;;;;0.10;0.10;;;9.40;90.30;;;;;;4958163;28;20035;-65
2023/04/24 07:09:23;;;;;;;0.00;0.00;;;9.40;90.20;;;;;;4959839;28;20051;-65
2023/04/24 07:11:49;;;;;;;0.00;0.00;;;9.40;90.00;;;;;;4950082;28;20130;-65
2023/04/24 07:14:15;;;;;;;0.75;0.75;;;9.30;90.10;;;;;;4961345;28;20078;-65
2023/04/24 07:16:41;;;;;;;0.10;0.10;;;9.40;90.00;;;;;;4962104;28;20036;-66
2023/04/24 07:19:07;;;;;;;0.00;0.00;;;9.40;89.80;;;;;;4958209;28;20051;-65
2023/04/24 07:21:32;;;;;;;0.00;0.00;;;9.30;89.80;;;;;;4960884;28;20054;-66
2023/04/24 07:23:58;;;;;;;0.40;0.40;;;9.30;90.00;;;;;;4960437;28;20043;-66
2023/04/24 07:26:24;;;;;;;1.25;0.88;;;9.40;89.60;;;;;;4950115;28;20538;-65
2023/04/24 07:28:50;;;;;;;0.17;0.17;;;9.30;89.30;;;;;;4959627;28;20050;-65
2023/04/24 07:31:15;;;;;;;0.55;0.55;;;9.30;89.30;;;;;;4960186;28;20102;-65
2023/04/24 07:33:41;;;;;;;0.60;0.60;;;9.20;89.30;;;;;;4959870;28;20050;-65
2023/04/24 07:36:07;;;;;;;0.20;0.20;;;9.30;89.20;;;;;;4959186;28;20361;-65
2023/04/24 07:38:32;;;;;;;0.20;0.20;;;9.30;89.00;;;;;;4960166;28;20054;-65
2023/04/24 07:40:58;;;;;;;0.43;0.15;;;9.30;88.70;;;;;;4948822;28;20070;-65
2023/04/24 07:43:24;;;;;;;1.60;1.17;;;9.20;88.50;;;;;;4960217;28;20476;-66
2023/04/24 07:45:50;;;;;;;0.08;0.08;;;9.20;88.30;;;;;;4958455;28;20047;-65
2023/04/24 07:48:17;;;;;;;0.00;0.00;;;9.20;87.90;;;;;;4942107;28;20145;-65
2023/04/24 07:50:46;;;;;;;0.00;0.00;;;9.10;88.00;;;;;;4959602;28;20508;-66
2023/04/24 07:53:12;;;;;;;0.00;0.00;;;9.10;87.80;;;;;;4948308;28;20094;-65
2023/04/24 07:55:37;;;;;;;0.10;0.10;;;9.20;88.00;;;;;;4949094;28;20413;-65
2023/04/24 07:58:03;;;;;;;0.00;0.00;;;9.30;88.00;;;;;;4958957;28;20059;-65
2023/04/24 08:00:29;;;;;;;0.00;0.00;;;9.30;87.80;;;;;;4958933;28;20057;-66
2023/04/24 08:02:54;;;;;;;0.73;0.35;;;9.30;88.00;;;;;;4948804;28;20047;-66
2023/04/24 08:05:20;;;;;;;0.25;0.20;;;9.30;87.80;;;;;;4958767;28;20055;-66
2023/04/24 08:07:48;;;;;;;0.00;0.00;;;9.40;87.60;;;;;;4959056;28;20046;-65
2023/04/24 08:10:14;;;;;;;0.03;0.03;;;9.50;87.70;;;;;;4933007;28;20117;-66
2023/04/24 08:12:40;;;;;;;0.00;0.00;;;9.50;87.20;;;;;;4933361;28;20039;-68
2023/04/24 08:15:06;;;;;;;0.00;0.00;;;9.60;87.10;;;;;;4959130;28;20070;-63
2023/04/24 08:17:33;;;;;;;0.10;0.10;;;9.50;86.40;;;;;;4958641;28;20044;-68
2023/04/24 08:20:01;;;;;;;1.10;1.10;;;9.60;86.40;;;;;;4959501;28;20047;-62
2023/04/24 08:22:27;;;;;;;0.00;0.00;;;9.60;86.30;;;;;;4945665;28;20393;-65
2023/04/24 08:24:53;;;;;;;0.00;0.00;;;9.60;86.50;;;;;;4960690;28;20058;-65
2023/04/24 08:27:18;;;;;;;0.55;0.55;;;9.60;86.80;;;;;;4958423;28;20412;-65
2023/04/24 08:29:44;;;;;;;0.00;0.00;;;9.60;86.80;;;;;;4948416;28;20050;-65
2023/04/24 08:32:10;;;;;;;0.00;0.00;;;9.60;87.00;;;;;;4962852;28;20105;-64
2023/04/24 08:34:35;;;;;;;0.15;0.15;;;9.60;86.80;;;;;;4933373;28;20070;-64
2023/04/24 08:37:02;;;;;;;0.00;0.00;;;9.50;86.50;;;;;;4961614;28;20163;-65
2023/04/24 08:39:27;;;;;;;0.95;0.90;;;9.50;86.30;;;;;;4961399;28;20456;-64
2023/04/24 08:41:53;;;;;;;0.00;0.00;;;9.50;85.80;;;;;;4950137;28;20047;-64
2023/04/24 08:44:20;;;;;;;0.00;0.00;;;9.60;85.80;;;;;;4962072;28;20050;-64
2023/04/24 08:46:48;;;;;;;0.22;0.22;;;9.60;85.00;;;;;;4965151;28;20054;-65
2023/04/24 08:49:16;;;;;;;0.00;0.00;;;9.70;85.30;;;;;;4961650;28;20047;-64
2023/04/24 08:51:42;;;;;;;0.00;0.00;;;9.80;84.90;;;;;;4960658;28;20049;-64
2023/04/24 08:54:08;;;;;;;0.00;0.00;;;9.80;83.60;;;;;;4963006;28;20043;-66
2023/04/24 08:56:37;;;;;;;0.00;0.00;;;9.80;82.80;;;;;;4965593;28;20580;-65
2023/04/24 08:59:04;;;;;;;0.00;0.00;;;9.90;81.20;;;;;;4968126;28;20051;-64
2023/04/24 09:01:32;;;;;;;0.00;0.00;;;9.90;80.30;;;;;;4969835;28;20656;-65
2023/04/24 09:04:02;;;;;;;0.00;0.00;;;10.00;80.70;;;;;;4951238;28;20050;-64
2023/04/24 09:06:28;;;;;;;0.00;0.00;;;10.10;79.30;;;;;;4971148;28;20420;-64
2023/04/24 09:08:55;;;;;;;0.00;0.00;;;10.10;78.80;;;;;;4969850;28;20373;-65
2023/04/24 09:11:24;;;;;;;0.10;0.10;;;10.20;79.10;;;;;;4954666;28;20129;-65
2023/04/24 09:13:50;;;;;;;0.00;0.00;;;10.20;78.90;;;;;;4968714;28;20038;-64
2023/04/24 09:16:16;;;;;;;0.00;0.00;;;10.30;79.30;;;;;;4970830;28;20423;-64
2023/04/24 09:18:42;;;;;;;0.65;0.38;;;10.30;80.10;;;;;;4970003;28;20047;-64
2023/04/24 09:21:09;;;;;;;0.00;0.00;;;10.20;80.30;;;;;;4970249;28;20046;-64
2023/04/24 09:23:35;;;;;;;0.00;0.00;;;10.20;80.50;;;;;;4953498;28;20105;-65
2023/04/24 09:26:04;;;;;;;0.00;0.00;;;10.10;81.40;;;;;;4969962;28;20628;-64
2023/04/24 09:28:31;;;;;;;0.00;0.00;;;10.00;81.40;;;;;;4970515;28;20043;-65
2023/04/24 09:31:08;;;;;;;0.40;0.40;;;9.90;81.20;;;;;;4971201;28;20063;-64
2023/04/24 09:33:34;;;;;;;0.05;0.05;;;9.90;81.20;;;;;;4965035;28;20055;-63
2023/04/24 09:36:00;;;;;;;0.00;0.00;;;9.80;80.80;;;;;;4967785;28;20051;-64
2023/04/24 09:38:38;;;;;;;0.00;0.00;;;9.70;81.70;;;;;;4970321;28;20030;-64
2023/04/24 09:41:08;;;;;;;0.28;0.25;;;9.70;82.10;;;;;;4969344;28;20102;-63
2023/04/24 09:43:34;;;;;;;0.10;0.10;;;9.70;81.10;;;;;;4969500;28;20050;-63
2023/04/24 09:46:05;;;;;;;0.03;0.03;;;9.50;80.90;;;;;;4970054;28;20051;-63
2023/04/24 09:48:35;;;;;;;0.00;0.00;;;9.60;80.40;;;;;;4968933;28;20053;-63
2023/04/24 09:51:03;;;;;;;0.00;0.00;;;9.60;80.70;;;;;;4970664;28;20061;-63
2023/04/24 09:53:30;;;;;;;0.00;0.00;;;9.60;81.50;;;;;;4953427;28;20046;-63
2023/04/24 09:56:01;;;;;;;0.00;0.00;;;9.70;81.20;;;;;;4969797;28;20043;-66
2023/04/24 09:58:28;;;;;;;0.13;0.13;;;9.70;81.80;;;;;;4951549;28;20513;-63
2023/04/24 10:00:56;;;;;;;0.00;0.00;;;9.70;81.50;;;;;;4958766;28;20508;-64
2023/04/24 10:03:24;;;;;;;0.00;0.00;;;9.80;81.10;;;;;;4960598;28;20042;-63
2023/04/24 10:05:52;;;;;;;0.00;0.00;;;9.80;81.90;;;;;;4960945;28;20113;-63
2023/04/24 10:08:17;;;;;;;0.00;0.00;;;9.90;81.30;;;;;;4957651;28;20039;-63
2023/04/24 10:10:45;;;;;;;0.10;0.10;;;9.90;81.50;;;;;;4961306;28;20099;-63
2023/04/24 10:13:12;;;;;;;0.70;0.70;;;9.90;81.10;;;;;;4963016;28;20035;-64
2023/04/24 10:15:40;;;;;;;0.00;0.00;;;9.90;80.90;;;;;;4961626;28;20441;-64
2023/04/24 10:18:06;;;;;;;0.00;0.00;;;9.80;81.00;;;;;;4952127;28;20043;-64
2023/04/24 10:20:33;;;;;;;0.00;0.00;;;9.80;81.40;;;;;;4961404;28;20043;-66
2023/04/24 10:22:59;;;;;;;4.95;1.42;;;9.90;81.50;;;;;;4951711;28;20038;-64
2023/04/24 10:25:30;;;;;;;0.00;0.00;;;9.90;81.00;;;;;;4961606;28;20045;-64
2023/04/24 10:27:59;;;;;;;0.00;0.00;;;9.90;80.80;;;;;;4954194;28;20043;-64
2023/04/24 10:30:26;;;;;;;0.00;0.00;;;9.90;79.80;;;;;;4959290;28;20051;-64
2023/04/24 10:32:52;;;;;;;0.43;0.40;;;10.00;78.90;;;;;;4959946;28;20412;-64
2023/04/24 10:35:19;;;;;;;2.13;2.03;;;10.10;78.60;;;;;;4960014;28;20038;-64
2023/04/24 10:38:00;;;;;;;0.60;0.55;;;9.90;79.00;;;;;;4959610;28;20442;-64
2023/04/24 10:40:30;;;;;;;0.00;0.00;;;10.00;79.00;;;;;;4955901;28;20093;-64
2023/04/24 10:42:56;;;;;;;0.00;0.00;;;10.10;79.90;;;;;;4962268;28;20370;-64
2023/04/24 10:45:23;;;;;;;0.00;0.00;;;10.10;79.50;;;;;;4961933;28;20050;-63
2023/04/24 10:47:59;;;;;;;2.00;1.75;;;10.00;79.00;;;;;;4963657;28;20054;-64
2023/04/24 10:50:30;;;;;;;0.00;0.00;;;10.00;78.60;;;;;;4963179;28;20401;-63
2023/04/24 10:53:06;;;;;;;4.78;0.65;;;9.90;80.20;;;;;;4961524;28;20038;-64
2023/04/24 10:55:51;;;;;;;0.00;0.00;;;9.80;79.40;;;;;;4960362;28;20043;-63
2023/04/24 10:58:46;;;;;;;0.00;0.00;;;9.60;78.00;;;;;;4960652;28;20420;-63
2023/04/24 11:01:27;;;;;;;0.00;0.00;;;9.60;78.70;;;;;;4960196;28;20122;-63
2023/04/24 11:03:58;;;;;;;0.00;0.00;;;9.60;77.30;;;;;;4958800;28;20688;-64
2023/04/24 11:06:36;;;;;;;0.00;0.00;;;9.50;76.40;;;;;;4958140;28;20126;-63
2023/04/24 11:09:12;;;;;;;0.00;0.00;;;9.50;76.80;;;;;;4959587;28;20098;-64
2023/04/24 11:11:43;;;;;;;0.00;0.00;;;9.60;77.20;;;;;;4948692;28;20050;-64
2023/04/24 11:14:09;;;;;;;0.00;0.00;;;9.60;77.40;;;;;;4956481;28;20051;-64
2023/04/24 11:16:53;;;;;;;0.00;0.00;;;9.70;76.80;;;;;;4959380;28;20039;-64
2023/04/24 11:19:25;;;;;;;0.10;0.10;;;9.70;77.80;;;;;;4957867;28;20039;-64
2023/04/24 11:21:55;;;;;;;;;;;9.90;77.00;;;;;;4957490;28;20094;-63
2023/04/24 11:24:53;;;;;;;0.00;0.00;;;9.90;76.90;;;;;;4949908;28;19981;-64
2023/04/24 11:27:21;;;;;;;0.20;0.20;;;9.90;76.70;;;;;;4930132;28;20571;-64
2023/04/24 11:30:00;;;;;;;0.00;0.00;;;10.00;77.40;;;;;;4957046;28;20196;-64
2023/04/24 11:32:42;;;;;;;0.00;0.00;;;10.00;77.30;;;;;;4955950;28;20495;-65
2023/04/24 11:35:20;;;;;;;0.00;0.00;;;10.10;77.90;;;;;;4949394;28;20129;-64
2023/04/24 11:37:51;;;;;;;0.00;0.00;;;10.10;77.90;;;;;;4960044;28;20050;-64
2023/04/24 11:40:20;;;;;;;0.10;0.10;;;10.20;77.60;;;;;;4958953;28;20440;-64
2023/04/24 11:42:47;;;;;;;0.00;0.00;;;10.10;76.40;;;;;;4958892;28;20086;-65
2023/04/24 11:45:15;;;;;;;0.00;0.00;;;10.20;76.20;;;;;;4949947;28;20125;-64
2023/04/24 11:47:42;;;;;;;0.10;0.10;;;10.20;75.70;;;;;;4959441;28;20113;-63
2023/04/24 11:50:10;;;;;;;0.30;0.30;;;10.30;76.30;;;;;;4960220;28;20047;-64
2023/04/24 11:52:40;;;;;;;0.00;0.00;;;10.30;75.80;;;;;;4959247;28;20701;-64
2023/04/24 11:55:15;;;;;;;0.00;0.00;;;10.20;76.80;;;;;;4958881;28;20055;-64
2023/04/24 11:57:44;;;;;;;0.00;0.00;;;10.10;77.20;;;;;;4958521;28;20054;-64
2023/04/24 12:00:17;;;;;;;0.00;0.00;;;10.10;77.20;;;;;;4949733;28;20078;-64
2023/04/24 12:02:42;;;;;;;0.00;0.00;;;10.10;77.40;;;;;;4958060;28;20051;-65
2023/04/24 12:05:08;;;;;;;0.00;0.00;;;10.10;78.10;;;;;;4959345;28;20058;-65
2023/04/24 12:07:44;;;;;;;0.00;0.00;;;10.00;76.40;;;;;;4960573;28;20105;-64
2023/04/24 12:10:09;;;;;;;0.00;0.00;;;10.00;77.30;;;;;;4961463;28;20659;-65
2023/04/24 12:12:35;;;;;;;0.00;0.00;;;10.00;78.30;;;;;;4955381;28;20051;-65
2023/04/24 12:15:01;;;;;;;0.00;0.00;;;10.00;78.70;;;;;;4958785;28;20051;-65
2023/04/24 12:17:31;;;;;;;0.00;0.00;;;10.10;79.20;;;;;;4958721;28;20050;-65
2023/04/24 12:20:05;;;;;;;0.00;0.00;;;10.20;79.40;;;;;;4956279;28;20051;-65
2023/04/24 12:22:49;;;;;;;0.00;0.00;;;10.10;77.50;;;;;;4959028;28;20054;-65
2023/04/24 12:25:17;;;;;;;0.00;0.00;;;10.30;77.90;;;;;;4958614;28;20113;-65
2023/04/24 12:27:51;;;;;;;0.00;0.00;;;10.40;76.40;;;;;;4959276;28;20047;-65
2023/04/24 12:30:17;;;;;;;0.00;0.00;;;10.30;75.60;;;;;;4959342;28;20054;-64
2023/04/24 12:32:47;;;;;;;0.00;0.00;;;10.40;76.30;;;;;;4955477;28;20500;-65
2023/04/24 12:35:18;;;;;;;0.00;0.00;;;10.50;74.90;;;;;;4947732;28;20854;-64
2023/04/24 12:37:44;;;;;;;0.00;0.00;;;10.50;75.10;;;;;;4958239;28;20039;-64
2023/04/24 12:40:11;;;;;;;0.00;0.00;;;10.40;75.90;;;;;;4957086;28;20412;-65
2023/04/24 12:42:51;;;;;;;0.00;0.00;;;10.30;75.70;;;;;;4959464;28;20923;-65
2023/04/24 12:45:18;;;;;;;0.00;0.00;;;10.20;75.20;;;;;;4958362;28;20058;-64
2023/04/24 12:47:45;;;;;;;0.00;0.00;;;10.10;75.50;;;;;;4958379;28;20043;-65
2023/04/24 12:50:13;;;;;;;0.00;0.00;;;10.10;76.30;;;;;;4959232;28;20036;-65